createdAt,value
2023-04-30T00:02:20.581Z,0.90
2023-04-30T00:04:47.717Z,0.87
2023-04-30T00:07:14.688Z,0.90
2023-04-30T00:09:41.728Z,0.90
2023-04-30T00:12:08.726Z,0.97
2023-04-30T00:14:36.550Z,1.00
2023-04-30T00:17:03.535Z,0.87
2023-04-30T00:19:30.736Z,0.93
2023-04-30T00:21:57.705Z,0.80
2023-04-30T00:24:24.601Z,0.73
2023-04-30T00:26:51.641Z,0.90
2023-04-30T00:29:18.634Z,0.90
2023-04-30T00:31:45.688Z,0.80
2023-04-30T00:34:12.852Z,0.80
2023-04-30T00:36:40.686Z,0.93
2023-04-30T00:39:07.660Z,0.60
2023-04-30T00:41:36.319Z,1.10
2023-04-30T00:44:03.294Z,0.87
2023-04-30T00:46:30.934Z,0.93
2023-04-30T00:48:58.418Z,0.97
2023-04-30T00:51:26.644Z,0.90
2023-04-30T00:53:54.048Z,0.70
2023-04-30T00:56:21.295Z,0.60
2023-04-30T00:58:50.024Z,0.73
2023-04-30T01:01:18.079Z,0.90
2023-04-30T01:03:45.416Z,0.80
2023-04-30T01:06:12.532Z,0.73
2023-04-30T01:08:39.507Z,1.07
2023-04-30T01:11:06.611Z,0.83
2023-04-30T01:13:49.572Z,1.70
2023-04-30T01:16:24.443Z,0.80
2023-04-30T01:19:05.049Z,1.47
2023-04-30T01:21:33.923Z,1.07
2023-04-30T01:24:32.394Z,1.00
2023-04-30T01:27:08.593Z,0.80
2023-04-30T01:29:37.234Z,1.10
2023-04-30T01:32:04.279Z,0.83
2023-04-30T01:34:31.428Z,1.77
2023-04-30T01:37:26.339Z,0.63
2023-04-30T01:40:24.575Z,0.87
2023-04-30T01:43:20.058Z,0.43
2023-04-30T01:46:28.573Z,0.80
2023-04-30T01:49:18.569Z,0.70
2023-04-30T01:51:47.411Z,1.17
2023-04-30T01:54:32.640Z,0.87
2023-04-30T01:57:06.271Z,0.63
2023-04-30T01:59:35.828Z,0.67
2023-04-30T02:02:03.382Z,0.77
2023-04-30T02:04:30.370Z,0.67
2023-04-30T02:06:58.860Z,1.07
2023-04-30T02:09:25.919Z,1.00
2023-04-30T02:11:52.983Z,0.70
2023-04-30T02:14:19.856Z,1.07
2023-04-30T02:16:46.923Z,0.70
2023-04-30T02:19:14.058Z,0.70
2023-04-30T02:21:41.046Z,0.70
2023-04-30T02:24:08.040Z,0.80
2023-04-30T02:26:35.063Z,0.70
2023-04-30T02:29:02.041Z,0.70
2023-04-30T02:31:29.092Z,0.77
2023-04-30T02:33:56.204Z,1.07
2023-04-30T02:36:23.090Z,0.80
2023-04-30T02:38:50.086Z,0.83
2023-04-30T02:41:17.013Z,0.70
2023-04-30T02:43:43.907Z,0.80
2023-04-30T02:46:10.873Z,1.50
2023-04-30T02:48:37.899Z,1.10
2023-04-30T02:51:05.076Z,0.77
2023-04-30T02:53:32.118Z,0.80
2023-04-30T02:55:59.334Z,0.63
2023-04-30T02:58:26.701Z,0.70
2023-04-30T03:00:53.835Z,0.70
2023-04-30T03:03:21.199Z,0.63
2023-04-30T03:05:48.319Z,0.70
2023-04-30T03:08:15.283Z,0.60
2023-04-30T03:10:42.438Z,1.00
2023-04-30T03:13:09.341Z,0.60
2023-04-30T03:15:36.290Z,1.70
2023-04-30T03:18:04.164Z,0.80
2023-04-30T03:20:31.109Z,0.70
2023-04-30T03:22:58.048Z,0.70
2023-04-30T03:25:25.164Z,0.80
2023-04-30T03:27:52.078Z,0.60
2023-04-30T03:30:19.044Z,0.70
2023-04-30T03:32:46.182Z,0.80
2023-04-30T03:35:13.210Z,0.60
2023-04-30T03:37:40.253Z,0.80
2023-04-30T03:40:08.037Z,0.73
2023-04-30T03:42:34.936Z,0.60
2023-04-30T03:45:01.881Z,1.20
2023-04-30T03:47:28.870Z,1.20
2023-04-30T03:49:56.191Z,0.83
2023-04-30T03:52:23.452Z,0.60
2023-04-30T03:54:50.405Z,1.10
2023-04-30T03:57:17.353Z,1.00
2023-04-30T03:59:44.534Z,0.73
2023-04-30T04:02:11.552Z,0.73
2023-04-30T04:04:38.472Z,1.00
2023-04-30T04:07:07.926Z,0.80
2023-04-30T04:09:34.910Z,1.00
2023-04-30T04:12:02.777Z,0.73
2023-04-30T04:14:29.709Z,0.80
2023-04-30T04:16:58.194Z,0.80
2023-04-30T04:19:25.144Z,0.90
2023-04-30T04:21:52.249Z,0.93
2023-04-30T04:24:19.272Z,0.80
2023-04-30T04:26:47.957Z,1.00
2023-04-30T04:29:15.110Z,1.20
2023-04-30T04:31:42.968Z,0.90
2023-04-30T04:34:10.033Z,1.10
2023-04-30T04:36:37.273Z,0.80
2023-04-30T04:39:04.296Z,0.90
2023-04-30T04:41:38.280Z,0.90
2023-04-30T04:44:05.473Z,1.10
2023-04-30T04:46:32.816Z,0.90
2023-04-30T04:48:59.843Z,0.77
2023-04-30T04:51:27.216Z,0.90
2023-04-30T04:53:54.266Z,1.17
2023-04-30T04:56:21.214Z,1.00
2023-04-30T04:58:48.230Z,1.03
2023-04-30T05:01:15.480Z,1.10
2023-04-30T05:03:42.548Z,0.90
2023-04-30T05:06:09.817Z,0.83
2023-04-30T05:08:36.994Z,0.80
2023-04-30T05:11:04.021Z,1.10
2023-04-30T05:13:31.479Z,1.40
2023-04-30T05:15:58.879Z,1.00
2023-04-30T05:18:25.870Z,0.90
2023-04-30T05:20:52.866Z,0.70
2023-04-30T05:23:19.873Z,0.77
2023-04-30T05:25:52.163Z,1.00
2023-04-30T05:28:19.227Z,0.70
2023-04-30T05:30:46.492Z,0.60
2023-04-30T05:33:13.429Z,1.00
2023-04-30T05:35:40.582Z,1.00
2023-04-30T05:38:07.552Z,1.20
2023-04-30T05:40:34.493Z,0.80
2023-04-30T05:43:01.683Z,1.00
2023-04-30T05:45:28.568Z,1.40
2023-04-30T05:47:55.621Z,0.93
2023-04-30T05:50:22.937Z,0.70
2023-04-30T05:52:49.824Z,1.03
2023-04-30T05:55:16.842Z,0.80
2023-04-30T05:57:44.126Z,1.10
2023-04-30T06:00:12.554Z,0.97
2023-04-30T06:02:39.714Z,0.90
2023-04-30T06:05:09.161Z,0.93
2023-04-30T06:07:36.250Z,1.00
2023-04-30T06:10:03.695Z,1.00
2023-04-30T06:12:31.298Z,0.83
2023-04-30T06:14:58.768Z,0.90
2023-04-30T06:17:25.707Z,1.07
2023-04-30T06:19:53.163Z,0.70
2023-04-30T06:22:20.460Z,1.00
2023-04-30T06:24:47.362Z,1.30
2023-04-30T06:27:14.650Z,0.70
2023-04-30T06:29:41.564Z,1.00
2023-04-30T06:32:08.721Z,1.20
2023-04-30T06:34:37.144Z,1.00
2023-04-30T06:37:04.113Z,1.00
2023-04-30T06:39:31.085Z,0.87
2023-04-30T06:41:58.022Z,1.03
2023-04-30T06:44:25.032Z,1.03
2023-04-30T06:46:51.911Z,1.00
2023-04-30T06:49:19.044Z,1.00
2023-04-30T06:51:46.050Z,0.93
2023-04-30T06:54:14.398Z,1.10
2023-04-30T06:56:41.529Z,0.90
2023-04-30T06:59:08.880Z,1.20
2023-04-30T07:01:35.915Z,4.57
2023-04-30T07:04:02.955Z,1.00
2023-04-30T07:06:30.683Z,1.10
2023-04-30T07:08:57.893Z,0.83
2023-04-30T07:11:24.936Z,1.30
2023-04-30T07:13:51.963Z,0.97
2023-04-30T07:16:18.990Z,0.90
2023-04-30T07:18:49.039Z,1.30
2023-04-30T07:21:16.341Z,0.90
2023-04-30T07:23:44.262Z,1.10
2023-04-30T07:26:11.234Z,0.90
2023-04-30T07:28:38.171Z,1.03
2023-04-30T07:31:05.267Z,1.27
2023-04-30T07:33:32.485Z,1.13
2023-04-30T07:35:59.493Z,1.20
2023-04-30T07:38:26.470Z,0.80
2023-04-30T07:40:53.397Z,1.93
2023-04-30T07:43:20.471Z,1.00
2023-04-30T07:45:49.518Z,1.00
2023-04-30T07:48:17.425Z,1.27
2023-04-30T07:50:47.366Z,0.93
2023-04-30T07:53:14.295Z,0.80
2023-04-30T07:55:41.287Z,1.10
2023-04-30T07:58:08.293Z,1.40
2023-04-30T08:00:35.179Z,1.10
2023-04-30T08:03:02.560Z,1.20
2023-04-30T08:05:29.802Z,1.20
2023-04-30T08:07:56.841Z,0.93
2023-04-30T08:10:24.131Z,1.03
2023-04-30T08:12:51.129Z,0.97
2023-04-30T08:15:19.287Z,1.57
2023-04-30T08:17:46.432Z,0.80
2023-04-30T08:20:13.425Z,1.37
2023-04-30T08:22:40.596Z,1.27
2023-04-30T08:25:07.941Z,1.10
2023-04-30T08:27:34.907Z,1.07
2023-04-30T08:30:01.786Z,1.00
2023-04-30T08:32:29.818Z,1.40
2023-04-30T08:34:56.982Z,1.40
2023-04-30T08:37:24.015Z,1.00
2023-04-30T08:39:51.105Z,1.60
2023-04-30T08:42:22.396Z,1.10
2023-04-30T08:44:49.441Z,1.10
2023-04-30T08:47:18.227Z,1.00
2023-04-30T08:49:46.393Z,1.27
2023-04-30T08:52:13.527Z,1.23
2023-04-30T08:54:40.593Z,1.10
2023-04-30T08:57:07.946Z,0.90
2023-04-30T08:59:34.956Z,1.20
2023-04-30T09:02:02.377Z,1.10
2023-04-30T09:04:29.551Z,0.90
2023-04-30T09:06:59.296Z,0.97
2023-04-30T09:09:33.632Z,1.20
2023-04-30T09:12:26.836Z,1.00
2023-04-30T09:15:07.098Z,0.90
2023-04-30T09:17:35.073Z,1.00
2023-04-30T09:20:09.465Z,0.83
2023-04-30T09:22:38.295Z,1.30
2023-04-30T09:25:06.444Z,1.27
2023-04-30T09:27:33.545Z,2.60
2023-04-30T09:30:00.880Z,1.13
2023-04-30T09:32:27.955Z,2.03
2023-04-30T09:34:56.075Z,0.93
2023-04-30T09:37:34.787Z,0.90
2023-04-30T09:40:01.870Z,1.27
2023-04-30T09:42:28.863Z,1.17
2023-04-30T09:44:55.939Z,1.30
2023-04-30T09:47:23.213Z,1.00
2023-04-30T09:49:52.724Z,1.10
2023-04-30T09:52:21.551Z,1.40
2023-04-30T09:54:48.721Z,1.80
2023-04-30T09:57:16.501Z,1.30
2023-04-30T09:59:47.453Z,1.33
2023-04-30T10:02:17.152Z,1.10
2023-04-30T10:04:48.174Z,1.20
2023-04-30T10:07:22.082Z,1.63
2023-04-30T10:10:19.467Z,1.37
2023-04-30T10:12:54.485Z,1.23
2023-04-30T10:15:39.468Z,1.33
2023-04-30T10:20:41.773Z,1.23
2023-04-30T10:23:08.976Z,1.60
2023-04-30T10:25:38.512Z,1.67
2023-04-30T10:28:07.225Z,1.23
2023-04-30T10:30:36.325Z,1.00
2023-04-30T10:33:41.952Z,0.90
2023-04-30T10:36:14.905Z,1.27
2023-04-30T10:38:42.041Z,1.00
2023-04-30T10:41:09.932Z,1.00
2023-04-30T10:43:37.225Z,0.90
2023-04-30T10:46:04.807Z,1.10
2023-04-30T10:48:36.064Z,1.40
2023-04-30T10:51:03.879Z,1.10
2023-04-30T10:53:36.684Z,1.33
2023-04-30T10:56:09.541Z,1.17
2023-04-30T10:58:38.879Z,1.13
2023-04-30T11:01:11.496Z,1.30
2023-04-30T11:03:40.907Z,1.30
2023-04-30T11:06:16.121Z,1.63
2023-04-30T11:08:47.273Z,1.00
2023-04-30T11:11:24.049Z,1.03
2023-04-30T11:14:12.586Z,1.20
2023-04-30T11:16:39.711Z,1.20
2023-04-30T11:19:14.870Z,1.17
2023-04-30T11:21:42.857Z,1.53
2023-04-30T11:24:09.796Z,2.40
2023-04-30T11:27:05.637Z,1.50
2023-04-30T11:29:34.531Z,1.20
2023-04-30T11:32:01.985Z,1.20
2023-04-30T11:34:29.617Z,1.30
2023-04-30T11:36:59.967Z,1.10
2023-04-30T11:39:29.800Z,1.10
2023-04-30T11:41:57.773Z,1.40
2023-04-30T11:44:28.455Z,1.00
2023-04-30T11:46:55.558Z,1.10
2023-04-30T11:49:22.898Z,1.20
2023-04-30T11:51:50.830Z,1.70
2023-04-30T11:54:19.514Z,1.20
2023-04-30T11:56:50.490Z,0.83
2023-04-30T11:59:19.739Z,1.10
2023-04-30T12:01:46.780Z,1.10
2023-04-30T12:04:14.001Z,1.00
2023-04-30T12:06:42.175Z,1.33
2023-04-30T12:09:11.883Z,0.77
2023-04-30T12:11:39.464Z,1.30
2023-04-30T12:14:11.154Z,1.03
2023-04-30T12:16:52.278Z,1.40
2023-04-30T12:19:21.327Z,1.37
2023-04-30T12:21:49.374Z,0.60
2023-04-30T12:24:18.319Z,1.30
2023-04-30T12:26:45.984Z,1.60
2023-04-30T12:29:18.264Z,1.33
2023-04-30T12:31:49.256Z,1.80
2023-04-30T12:34:17.244Z,2.13
2023-04-30T12:36:44.322Z,1.60
2023-04-30T12:39:16.367Z,0.93
2023-04-30T12:41:48.580Z,1.53
2023-04-30T12:44:24.888Z,1.40
2023-04-30T12:46:56.360Z,1.50
2023-04-30T12:49:35.982Z,1.00
2023-04-30T12:52:09.596Z,1.10
2023-04-30T12:54:37.613Z,0.90
2023-04-30T12:57:12.713Z,1.00
2023-04-30T13:00:00.493Z,1.00
2023-04-30T13:02:33.710Z,1.10
2023-04-30T13:05:00.748Z,1.10
2023-04-30T13:07:38.343Z,2.07
2023-04-30T13:10:07.334Z,1.23
2023-04-30T13:12:34.380Z,1.10
2023-04-30T13:15:02.910Z,1.10
2023-04-30T13:17:29.888Z,1.10
2023-04-30T13:19:57.096Z,1.10
2023-04-30T13:22:30.017Z,1.40
2023-04-30T13:24:57.185Z,0.80
2023-04-30T13:27:24.121Z,1.10
2023-04-30T13:29:51.120Z,1.17
2023-04-30T13:32:18.221Z,1.10
2023-04-30T13:34:45.145Z,1.13
2023-04-30T13:37:12.398Z,0.90
2023-04-30T13:39:39.441Z,1.10
2023-04-30T13:42:06.737Z,1.37
2023-04-30T13:44:33.882Z,1.27
2023-04-30T13:47:01.477Z,0.80
2023-04-30T13:49:28.557Z,1.20
2023-04-30T13:51:55.595Z,1.17
2023-04-30T13:54:22.662Z,1.30
2023-04-30T13:56:49.728Z,1.00
2023-04-30T13:59:16.908Z,0.97
2023-04-30T14:01:44.509Z,0.73
2023-04-30T14:04:11.689Z,0.80
2023-04-30T14:06:39.064Z,0.80
2023-04-30T14:09:06.756Z,0.93
2023-04-30T14:11:33.828Z,1.77
2023-04-30T14:14:00.960Z,0.80
2023-04-30T14:16:29.002Z,0.80
2023-04-30T14:18:56.026Z,0.70
2023-04-30T14:21:23.060Z,0.80
2023-04-30T14:23:50.064Z,0.70
2023-04-30T14:26:16.986Z,1.67
2023-04-30T14:28:43.985Z,1.07
2023-04-30T14:31:10.951Z,0.67
2023-04-30T14:33:37.853Z,1.57
2023-04-30T14:36:05.551Z,1.30
2023-04-30T14:38:32.512Z,0.80
2023-04-30T14:40:59.477Z,0.83
2023-04-30T14:43:26.476Z,1.00
2023-04-30T14:45:53.535Z,0.80
2023-04-30T14:48:20.529Z,1.13
2023-04-30T14:50:47.680Z,0.70
2023-04-30T14:53:16.116Z,0.97
2023-04-30T14:55:43.661Z,0.90
2023-04-30T14:58:10.721Z,1.00
2023-04-30T15:00:37.768Z,0.83
2023-04-30T15:03:04.770Z,1.03
2023-04-30T15:05:32.542Z,1.70
2023-04-30T15:07:59.423Z,0.90
2023-04-30T15:10:26.374Z,1.50
2023-04-30T15:12:54.076Z,1.50
2023-04-30T15:15:25.088Z,0.90
2023-04-30T15:17:52.892Z,1.00
2023-04-30T15:20:20.057Z,0.90
2023-04-30T15:22:46.977Z,1.40
2023-04-30T15:25:14.053Z,0.90
2023-04-30T15:27:41.821Z,0.63
2023-04-30T15:30:09.605Z,1.37
2023-04-30T15:32:36.874Z,1.30
2023-04-30T15:35:04.018Z,1.60
2023-04-30T15:37:31.086Z,1.00
2023-04-30T15:39:57.966Z,1.00
2023-04-30T15:42:24.977Z,1.20
2023-04-30T15:44:52.372Z,0.90
2023-04-30T15:47:20.243Z,1.00
2023-04-30T15:49:48.814Z,1.77
2023-04-30T15:52:15.732Z,1.10
2023-04-30T15:54:42.642Z,1.40
2023-04-30T15:57:09.628Z,1.60
2023-04-30T15:59:36.514Z,1.00
2023-04-30T16:02:03.511Z,0.80
2023-04-30T16:04:30.633Z,1.30
2023-04-30T16:06:57.634Z,1.10
2023-04-30T16:09:24.867Z,1.03
2023-04-30T16:11:51.943Z,1.10
2023-04-30T16:14:18.837Z,0.83
2023-04-30T16:16:45.906Z,0.90
2023-04-30T16:19:14.177Z,0.90
2023-04-30T16:21:41.418Z,1.20
2023-04-30T16:24:09.739Z,1.00
2023-04-30T16:26:37.297Z,1.90
2023-04-30T16:29:05.019Z,1.23
2023-04-30T16:31:32.515Z,1.57
2023-04-30T16:33:59.599Z,1.70
2023-04-30T16:36:28.128Z,1.30
2023-04-30T16:38:55.032Z,1.00
2023-04-30T16:41:22.050Z,1.40
2023-04-30T16:43:48.963Z,1.97
2023-04-30T16:46:15.882Z,1.00
2023-04-30T16:48:43.271Z,1.17
2023-04-30T16:51:10.603Z,1.40
2023-04-30T16:53:37.546Z,1.20
2023-04-30T16:56:05.014Z,1.20
2023-04-30T16:58:32.269Z,1.47
2023-04-30T17:00:59.603Z,1.57
2023-04-30T17:03:26.764Z,1.27
2023-04-30T17:05:53.890Z,1.20
2023-04-30T17:08:21.505Z,1.00
2023-04-30T17:10:48.807Z,0.90
2023-04-30T17:13:15.812Z,1.13
2023-04-30T17:15:46.416Z,1.20
2023-04-30T17:18:15.288Z,1.20
2023-04-30T17:20:42.460Z,1.07
2023-04-30T17:23:09.366Z,2.10
2023-04-30T17:25:37.085Z,1.30
2023-04-30T17:28:04.093Z,0.87
2023-04-30T17:30:31.065Z,1.53
2023-04-30T17:33:00.414Z,1.10
2023-04-30T17:35:27.778Z,1.50
2023-04-30T17:37:55.831Z,1.20
2023-04-30T17:40:22.839Z,0.80
2023-04-30T17:42:52.000Z,1.13
2023-04-30T17:45:19.174Z,1.30
2023-04-30T17:47:46.531Z,1.43
2023-04-30T17:50:13.690Z,1.90
2023-04-30T17:52:40.755Z,1.10
2023-04-30T17:55:08.478Z,0.97
2023-04-30T17:57:36.279Z,1.70
2023-04-30T18:00:04.451Z,1.40
2023-04-30T18:02:32.764Z,1.90
2023-04-30T18:04:59.739Z,1.80
2023-04-30T18:07:26.905Z,1.60
2023-04-30T18:09:54.512Z,1.90
2023-04-30T18:12:21.860Z,1.33
2023-04-30T18:14:48.770Z,1.67
2023-04-30T18:17:16.566Z,1.77
2023-04-30T18:19:46.445Z,2.10
2023-04-30T18:22:13.655Z,1.57
2023-04-30T18:24:42.515Z,1.93
2023-04-30T18:27:10.180Z,1.83
2023-04-30T18:29:37.583Z,1.83
2023-04-30T18:32:04.820Z,1.60
2023-04-30T18:34:32.309Z,2.03
2023-04-30T18:36:59.194Z,2.03
2023-04-30T18:39:26.559Z,1.80
2023-04-30T18:41:53.611Z,3.23
2023-04-30T18:44:31.634Z,2.40
2023-04-30T18:46:59.008Z,2.10
2023-04-30T18:49:26.054Z,2.10
2023-04-30T18:51:55.292Z,2.20
2023-04-30T18:54:22.630Z,2.00
2023-04-30T18:56:49.754Z,2.43
2023-04-30T18:59:17.039Z,1.93
2023-04-30T19:01:44.069Z,1.70
2023-04-30T19:04:15.760Z,2.03
2023-04-30T19:06:44.051Z,2.27
2023-04-30T19:09:11.006Z,2.23
2023-04-30T19:11:38.473Z,2.07
2023-04-30T19:14:06.530Z,2.03
2023-04-30T19:16:33.743Z,2.10
2023-04-30T19:19:00.736Z,2.20
2023-04-30T19:21:30.055Z,2.73
2023-04-30T19:23:57.772Z,2.60
2023-04-30T19:26:26.005Z,2.83
2023-04-30T19:28:53.108Z,3.27
2023-04-30T19:31:20.305Z,3.40
2023-04-30T19:33:47.338Z,3.50
2023-04-30T19:36:14.960Z,2.93
2023-04-30T19:38:42.286Z,2.93
2023-04-30T19:41:09.240Z,3.10
2023-04-30T19:43:36.497Z,3.20
2023-04-30T19:46:03.744Z,3.70
2023-04-30T19:48:31.510Z,3.83
2023-04-30T19:50:58.582Z,4.60
2023-04-30T19:53:25.886Z,5.10
2023-04-30T19:55:53.213Z,5.90
2023-04-30T19:58:20.629Z,5.33
2023-04-30T20:00:47.742Z,5.60
2023-04-30T20:03:16.169Z,7.90
2023-04-30T20:05:44.646Z,7.47
2023-04-30T20:08:11.728Z,7.33
2023-04-30T20:10:39.192Z,8.30
2023-04-30T20:13:07.119Z,7.63
2023-04-30T20:15:34.248Z,6.47
2023-04-30T20:18:01.451Z,5.97
2023-04-30T20:20:29.755Z,5.43
2023-04-30T20:22:57.191Z,4.80
2023-04-30T20:25:29.607Z,4.90
2023-04-30T20:27:57.046Z,3.73
2023-04-30T20:30:23.988Z,4.40
2023-04-30T20:32:51.002Z,4.00
2023-04-30T20:35:18.581Z,4.17
2023-04-30T20:37:45.495Z,4.83
2023-04-30T20:40:13.184Z,4.63
2023-04-30T20:42:40.924Z,4.90
2023-04-30T20:45:09.054Z,4.93
2023-04-30T20:47:36.048Z,4.93
2023-04-30T20:50:03.331Z,4.63
2023-04-30T20:52:30.280Z,3.77
2023-04-30T20:54:59.370Z,5.10
2023-04-30T20:57:26.928Z,4.30
2023-04-30T20:59:54.235Z,4.40
2023-04-30T21:02:21.321Z,4.60
2023-04-30T21:04:48.272Z,4.50
2023-04-30T21:07:15.320Z,4.33
2023-04-30T21:09:42.898Z,4.30
2023-04-30T21:12:09.913Z,4.07
2023-04-30T21:14:37.613Z,4.20
2023-04-30T21:17:04.620Z,3.60
2023-04-30T21:19:33.751Z,4.17
2023-04-30T21:22:00.763Z,4.13
2023-04-30T21:24:31.048Z,4.00
2023-04-30T21:26:59.170Z,4.07
2023-04-30T21:29:26.537Z,3.90
2023-04-30T21:31:55.232Z,4.50
2023-04-30T21:34:22.375Z,4.37
2023-04-30T21:36:49.429Z,3.97
2023-04-30T21:39:17.487Z,3.67
2023-04-30T21:41:44.463Z,4.07
2023-04-30T21:44:12.399Z,4.27
2023-04-30T21:46:39.714Z,4.53
2023-04-30T21:49:07.133Z,4.07
2023-04-30T21:51:34.773Z,4.17
2023-04-30T21:54:02.039Z,3.73
2023-04-30T21:56:29.108Z,3.80
2023-04-30T21:58:56.042Z,3.43
2023-04-30T22:01:27.683Z,3.73
2023-04-30T22:03:54.872Z,3.60
2023-04-30T22:06:22.038Z,3.83
2023-04-30T22:08:49.168Z,3.50
2023-04-30T22:11:16.358Z,3.67
2023-04-30T22:13:43.292Z,3.20
2023-04-30T22:16:10.253Z,3.67
2023-04-30T22:18:37.317Z,3.50
2023-04-30T22:21:04.310Z,3.27
2023-04-30T22:23:31.532Z,3.03
2023-04-30T22:25:58.528Z,2.90
2023-04-30T22:28:25.481Z,2.67
2023-04-30T22:30:59.867Z,2.87
2023-04-30T22:33:27.372Z,3.13
2023-04-30T22:35:54.988Z,3.43
2023-04-30T22:38:21.946Z,3.53
2023-04-30T22:40:49.107Z,3.43
2023-04-30T22:43:16.493Z,6.00
2023-04-30T22:45:43.599Z,3.30
2023-04-30T22:48:10.987Z,3.50
2023-04-30T22:50:38.577Z,3.27
2023-04-30T22:53:06.717Z,2.97
2023-04-30T22:55:35.066Z,3.07
2023-04-30T22:58:02.014Z,2.70
2023-04-30T23:00:29.199Z,3.07
2023-04-30T23:02:56.162Z,2.63
2023-04-30T23:05:23.210Z,2.57
2023-04-30T23:07:50.413Z,2.90
2023-04-30T23:10:17.456Z,2.80
2023-04-30T23:12:44.486Z,2.87
2023-04-30T23:15:12.365Z,2.50
2023-04-30T23:17:39.686Z,2.60
2023-04-30T23:20:07.971Z,2.60
2023-04-30T23:22:35.053Z,3.03
2023-04-30T23:25:02.002Z,2.37
2023-04-30T23:27:29.625Z,3.33
2023-04-30T23:29:56.904Z,2.37
2023-04-30T23:32:24.315Z,2.13
2023-04-30T23:34:51.312Z,1.83
2023-04-30T23:37:18.286Z,2.73
2023-04-30T23:39:45.221Z,2.20
2023-04-30T23:42:12.090Z,2.53
2023-04-30T23:44:39.132Z,2.40
2023-04-30T23:47:06.729Z,2.30
2023-04-30T23:49:33.688Z,3.70
2023-04-30T23:52:00.744Z,2.30
2023-04-30T23:54:28.266Z,2.27
2023-04-30T23:56:55.474Z,1.83
2023-04-30T23:59:25.363Z,2.00
